createdAt,value
2018-12-08T00:00:06.062Z,6.70
2018-12-08T00:02:35.101Z,6.70
2018-12-08T00:05:04.070Z,6.60
2018-12-08T00:07:32.935Z,6.60
2018-12-08T00:10:01.724Z,6.60
2018-12-08T00:12:30.505Z,6.60
2018-12-08T00:14:59.391Z,6.60
2018-12-08T00:17:28.206Z,6.60
2018-12-08T00:19:57.155Z,6.60
2018-12-08T00:22:25.950Z,6.60
2018-12-08T00:24:54.805Z,6.60
2018-12-08T00:27:23.611Z,6.60
2018-12-08T00:29:52.398Z,6.60
2018-12-08T00:32:21.178Z,6.60
2018-12-08T00:34:50.008Z,6.60
2018-12-08T00:37:18.915Z,6.60
2018-12-08T00:39:47.748Z,6.60
2018-12-08T00:42:16.542Z,6.60
2018-12-08T00:44:46.512Z,6.50
2018-12-08T00:47:15.375Z,6.50
2018-12-08T00:49:44.186Z,6.40
2018-12-08T00:52:13.066Z,6.40
2018-12-08T00:54:41.885Z,6.40
2018-12-08T00:57:10.687Z,6.40
2018-12-08T00:59:39.499Z,6.30
2018-12-08T01:02:08.277Z,6.40
2018-12-08T01:04:40.718Z,6.40
2018-12-08T01:07:09.690Z,6.30
2018-12-08T01:09:38.487Z,6.30
2018-12-08T01:12:07.374Z,6.40
2018-12-08T01:14:36.259Z,6.40
2018-12-08T01:17:05.195Z,6.40
2018-12-08T01:19:34.139Z,6.40
2018-12-08T01:22:03.026Z,6.40
2018-12-08T01:24:31.857Z,6.40
2018-12-08T01:27:00.685Z,6.30
2018-12-08T01:29:29.520Z,6.20
2018-12-08T01:31:58.335Z,6.00
2018-12-08T01:34:27.219Z,6.10
2018-12-08T01:36:56.126Z,6.00
2018-12-08T01:39:24.992Z,6.00
2018-12-08T01:41:53.801Z,5.90
2018-12-08T01:44:22.649Z,5.90
2018-12-08T01:46:51.421Z,5.90
2018-12-08T01:49:20.195Z,5.90
2018-12-08T01:51:48.990Z,5.80
2018-12-08T01:54:17.765Z,5.80
2018-12-08T01:56:47.233Z,5.70
2018-12-08T01:59:16.170Z,5.70
2018-12-08T02:01:44.963Z,5.70
2018-12-08T02:04:13.810Z,5.70
2018-12-08T02:06:42.693Z,5.70
2018-12-08T02:09:11.478Z,5.60
2018-12-08T02:11:40.281Z,5.60
2018-12-08T02:14:09.080Z,5.60
2018-12-08T02:16:37.875Z,5.60
2018-12-08T02:19:06.670Z,5.70
2018-12-08T02:21:35.549Z,5.60
2018-12-08T02:24:04.326Z,5.60
2018-12-08T02:26:33.205Z,5.60
2018-12-08T02:29:02.117Z,5.70
2018-12-08T02:31:30.991Z,5.70
2018-12-08T02:34:00.481Z,5.70
2018-12-08T02:36:29.313Z,5.70
2018-12-08T02:38:58.398Z,5.70
2018-12-08T02:41:27.470Z,5.70
2018-12-08T02:43:56.784Z,5.70
2018-12-08T02:46:25.887Z,5.70
2018-12-08T02:48:54.764Z,5.70
2018-12-08T02:51:23.638Z,5.60
2018-12-08T02:53:52.613Z,5.60
2018-12-08T02:56:22.383Z,5.60
2018-12-08T02:58:51.215Z,5.60
2018-12-08T03:01:20.163Z,5.60
2018-12-08T03:03:49.037Z,5.60
2018-12-08T03:06:18.309Z,5.60
2018-12-08T03:08:47.128Z,5.60
2018-12-08T03:11:15.996Z,5.60
2018-12-08T03:13:44.814Z,5.60
2018-12-08T03:16:13.775Z,5.60
2018-12-08T03:18:43.613Z,5.70
2018-12-08T03:21:12.504Z,5.80
2018-12-08T03:23:41.290Z,5.80
2018-12-08T03:26:10.322Z,5.80
2018-12-08T03:28:39.169Z,5.90
2018-12-08T03:31:08.148Z,5.90
2018-12-08T03:33:37.064Z,5.90
2018-12-08T03:36:05.887Z,5.90
2018-12-08T03:38:35.353Z,5.90
2018-12-08T03:41:04.541Z,5.90
2018-12-08T03:43:33.343Z,5.90
2018-12-08T03:46:03.357Z,5.90
2018-12-08T03:48:32.764Z,5.90
2018-12-08T03:51:01.546Z,5.90
2018-12-08T03:53:30.490Z,5.90
2018-12-08T03:55:59.322Z,5.90
2018-12-08T03:58:28.201Z,5.90
2018-12-08T04:00:57.092Z,5.90
2018-12-08T04:03:25.873Z,5.90
2018-12-08T04:05:55.919Z,5.90
2018-12-08T04:08:24.790Z,5.90
2018-12-08T04:10:53.960Z,5.90
2018-12-08T04:13:24.026Z,5.90
2018-12-08T04:15:53.193Z,5.90
2018-12-08T04:18:22.135Z,5.90
2018-12-08T04:20:50.957Z,6.00
2018-12-08T04:23:19.857Z,5.90
2018-12-08T04:25:48.701Z,5.90
2018-12-08T04:28:17.597Z,5.90
2018-12-08T04:30:46.481Z,5.90
2018-12-08T04:33:15.677Z,5.80
2018-12-08T04:35:44.578Z,5.80
2018-12-08T04:38:14.475Z,5.80
2018-12-08T04:40:44.309Z,5.80
2018-12-08T04:43:13.120Z,5.80
2018-12-08T04:45:41.982Z,5.70
2018-12-08T04:48:10.855Z,5.70
2018-12-08T04:50:40.248Z,5.70
2018-12-08T04:53:09.994Z,5.60
2018-12-08T04:55:38.817Z,5.70
2018-12-08T04:58:08.679Z,5.70
2018-12-08T05:00:38.338Z,5.60
2018-12-08T05:03:07.102Z,5.60
2018-12-08T05:05:35.960Z,5.60
2018-12-08T05:08:05.486Z,5.60
2018-12-08T05:10:34.299Z,5.60
2018-12-08T05:13:03.127Z,5.50
2018-12-08T05:15:32.245Z,5.50
2018-12-08T05:18:01.138Z,5.50
2018-12-08T05:20:30.163Z,5.50
2018-12-08T05:23:00.270Z,5.50
2018-12-08T05:25:29.109Z,5.50
2018-12-08T05:27:58.136Z,5.50
2018-12-08T05:30:27.042Z,5.60
2018-12-08T05:32:56.001Z,5.60
2018-12-08T05:35:24.954Z,5.60
2018-12-08T05:37:54.293Z,5.50
2018-12-08T05:40:23.150Z,5.50
2018-12-08T05:42:53.075Z,5.40
2018-12-08T05:45:21.958Z,5.40
2018-12-08T05:47:50.761Z,5.40
2018-12-08T05:50:19.697Z,5.40
2018-12-08T05:52:48.611Z,5.30
2018-12-08T05:55:17.548Z,5.30
2018-12-08T05:57:46.895Z,5.30
2018-12-08T06:00:16.585Z,5.30
2018-12-08T06:02:45.438Z,5.30
2018-12-08T06:05:14.681Z,5.30
2018-12-08T06:07:43.558Z,5.40
2018-12-08T06:10:13.530Z,5.40
2018-12-08T06:12:42.414Z,5.40
2018-12-08T06:15:11.285Z,5.40
2018-12-08T06:17:40.249Z,5.40
2018-12-08T06:20:09.349Z,5.40
2018-12-08T06:22:38.437Z,5.50
2018-12-08T06:25:10.330Z,5.50
2018-12-08T06:27:50.038Z,5.50
2018-12-08T06:30:18.842Z,5.60
2018-12-08T06:32:47.634Z,5.70
2018-12-08T06:35:16.953Z,5.70
2018-12-08T06:37:45.817Z,5.70
2018-12-08T06:40:14.836Z,5.70
2018-12-08T06:42:43.796Z,5.70
2018-12-08T06:45:12.790Z,5.70
2018-12-08T06:47:41.744Z,5.70
2018-12-08T06:50:10.753Z,5.60
2018-12-08T06:52:39.570Z,5.70
2018-12-08T06:55:09.132Z,5.70
2018-12-08T06:57:38.074Z,5.70
2018-12-08T07:00:07.502Z,5.70
2018-12-08T07:02:36.709Z,5.80
2018-12-08T07:05:06.193Z,5.80
2018-12-08T07:07:35.063Z,5.70
2018-12-08T07:10:04.407Z,5.70
2018-12-08T07:12:33.394Z,5.70
2018-12-08T07:15:02.388Z,5.70
2018-12-08T07:17:31.204Z,5.70
2018-12-08T07:20:00.049Z,5.80
2018-12-08T07:22:29.217Z,5.70
2018-12-08T07:24:58.168Z,5.70
2018-12-08T07:27:28.021Z,5.70
2018-12-08T07:29:57.520Z,5.60
2018-12-08T07:32:27.327Z,5.60
2018-12-08T07:34:56.100Z,5.70
2018-12-08T07:37:25.017Z,5.70
2018-12-08T07:39:53.914Z,5.80
2018-12-08T07:42:22.806Z,5.90
2018-12-08T07:44:51.939Z,6.00
2018-12-08T07:47:21.516Z,6.10
2018-12-08T07:49:50.488Z,6.10
2018-12-08T07:52:19.490Z,6.20
2018-12-08T07:54:48.371Z,6.20
2018-12-08T07:57:17.241Z,6.30
2018-12-08T07:59:46.188Z,6.30
2018-12-08T08:02:15.074Z,6.40
2018-12-08T08:04:43.980Z,6.50
2018-12-08T08:07:12.780Z,6.60
2018-12-08T08:09:41.785Z,6.70
2018-12-08T08:12:10.674Z,6.70
2018-12-08T08:14:39.642Z,6.70
2018-12-08T08:17:08.587Z,6.80
2018-12-08T08:19:37.675Z,6.80
2018-12-08T08:22:07.102Z,6.80
2018-12-08T08:24:36.584Z,6.80
2018-12-08T08:27:05.448Z,6.90
2018-12-08T08:29:34.555Z,6.90
2018-12-08T08:32:03.347Z,6.90
2018-12-08T08:34:32.235Z,6.90
2018-12-08T08:37:01.384Z,6.90
2018-12-08T08:39:30.156Z,7.00
2018-12-08T08:41:59.101Z,7.00
2018-12-08T08:44:28.056Z,7.00
2018-12-08T08:46:57.030Z,7.00
2018-12-08T08:49:26.841Z,7.00
2018-12-08T08:51:55.726Z,7.00
2018-12-08T08:54:24.677Z,6.90
2018-12-08T08:56:53.657Z,6.90
2018-12-08T08:59:22.429Z,7.00
2018-12-08T09:01:52.050Z,7.00
2018-12-08T09:04:20.849Z,7.00
2018-12-08T09:06:49.867Z,7.00
2018-12-08T09:09:18.810Z,7.00
2018-12-08T09:11:47.833Z,7.00
2018-12-08T09:14:16.621Z,7.00
2018-12-08T09:16:45.535Z,7.00
2018-12-08T09:19:14.545Z,7.10
2018-12-08T09:21:43.389Z,7.10
2018-12-08T09:24:12.278Z,7.10
2018-12-08T09:26:41.184Z,7.10
2018-12-08T09:29:10.061Z,7.10
2018-12-08T09:31:38.857Z,7.10
2018-12-08T09:34:07.814Z,7.10
2018-12-08T09:36:36.682Z,7.00
2018-12-08T09:39:07.412Z,7.00
2018-12-08T09:41:36.296Z,7.00
2018-12-08T09:44:05.342Z,7.00
2018-12-08T09:46:34.261Z,6.90
2018-12-08T09:49:03.170Z,7.00
2018-12-08T09:51:31.999Z,7.00
2018-12-08T09:54:00.788Z,7.10
2018-12-08T09:56:29.601Z,7.10
2018-12-08T09:58:58.390Z,7.20
2018-12-08T10:01:27.318Z,7.10
2018-12-08T10:03:56.165Z,7.10
2018-12-08T10:06:25.006Z,7.20
2018-12-08T10:08:53.936Z,7.30
2018-12-08T10:11:22.716Z,7.30
2018-12-08T10:13:51.514Z,7.40
2018-12-08T10:16:20.407Z,7.40
2018-12-08T10:18:49.173Z,7.50
2018-12-08T10:21:18.077Z,7.60
2018-12-08T10:23:46.942Z,7.60
2018-12-08T10:26:16.034Z,7.60
2018-12-08T10:28:44.881Z,7.70
2018-12-08T10:31:13.613Z,7.70
2018-12-08T10:33:42.572Z,7.70
2018-12-08T10:36:11.517Z,7.70
2018-12-08T10:38:40.693Z,7.70
2018-12-08T10:41:09.678Z,7.80
2018-12-08T10:43:38.610Z,7.80
2018-12-08T10:46:07.472Z,7.80
2018-12-08T10:48:36.320Z,7.80
2018-12-08T10:51:05.552Z,7.80
2018-12-08T10:53:34.532Z,7.80
2018-12-08T10:56:03.402Z,7.80
2018-12-08T10:58:32.198Z,7.80
2018-12-08T11:01:11.035Z,7.80
2018-12-08T11:03:56.669Z,7.90
2018-12-08T11:06:25.581Z,7.90
2018-12-08T11:08:54.538Z,7.90
2018-12-08T11:11:23.392Z,7.90
2018-12-08T11:13:52.208Z,7.90
2018-12-08T11:16:21.042Z,7.90
2018-12-08T11:18:49.850Z,7.90
2018-12-08T11:21:18.856Z,7.90
2018-12-08T11:23:47.691Z,7.90
2018-12-08T11:26:16.513Z,7.90
2018-12-08T11:28:45.345Z,7.90
2018-12-08T11:31:14.182Z,7.90
2018-12-08T11:33:43.334Z,7.90
2018-12-08T11:36:12.101Z,7.90
2018-12-08T11:38:40.957Z,7.80
2018-12-08T11:41:10.336Z,7.80
2018-12-08T11:43:39.262Z,7.90
2018-12-08T11:46:09.465Z,8.00
2018-12-08T11:48:38.229Z,8.20
2018-12-08T11:51:07.017Z,8.60
2018-12-08T11:53:36.839Z,9.00
2018-12-08T11:56:06.740Z,9.10
2018-12-08T11:58:35.644Z,9.00
2018-12-08T12:01:04.641Z,8.80
2018-12-08T12:03:33.467Z,8.60
2018-12-08T12:06:02.274Z,8.60
2018-12-08T12:08:31.214Z,8.30
2018-12-08T12:11:00.087Z,8.20
2018-12-08T12:13:29.302Z,8.20
2018-12-08T12:15:58.231Z,8.20
2018-12-08T12:18:27.225Z,8.10
2018-12-08T12:20:56.650Z,8.00
2018-12-08T12:26:27.151Z,8.10
2018-12-08T12:28:56.065Z,8.10
2018-12-08T12:31:24.990Z,8.10
2018-12-08T12:33:53.832Z,8.00
2018-12-08T12:36:23.229Z,7.90
2018-12-08T12:38:52.064Z,7.90
2018-12-08T12:41:20.887Z,7.90
2018-12-08T12:43:50.079Z,7.80
2018-12-08T12:46:20.716Z,7.90
2018-12-08T12:48:49.622Z,7.90
2018-12-08T12:51:18.502Z,7.90
2018-12-08T12:53:47.360Z,7.80
2018-12-08T12:56:16.948Z,7.70
2018-12-08T12:58:46.263Z,7.70
2018-12-08T13:01:15.135Z,7.70
2018-12-08T13:03:44.051Z,7.60
2018-12-08T13:06:13.044Z,7.60
2018-12-08T13:08:41.957Z,7.60
2018-12-08T13:11:12.170Z,7.60
2018-12-08T13:13:40.967Z,7.60
2018-12-08T13:16:09.825Z,7.50
2018-12-08T13:18:38.638Z,7.40
2018-12-08T13:21:07.512Z,7.40
2018-12-08T13:23:36.366Z,7.40
2018-12-08T13:26:05.178Z,7.40
2018-12-08T13:28:33.958Z,7.50
2018-12-08T13:31:03.094Z,7.40
2018-12-08T13:33:32.005Z,7.50
2018-12-08T13:36:01.940Z,7.40
2018-12-08T13:38:30.816Z,7.40
2018-12-08T13:40:59.796Z,7.40
2018-12-08T13:43:28.889Z,7.40
2018-12-08T13:45:57.782Z,7.40
2018-12-08T13:48:27.181Z,7.40
2018-12-08T13:50:56.224Z,7.40
2018-12-08T13:53:25.112Z,7.40
2018-12-08T13:55:53.890Z,7.50
2018-12-08T13:58:22.723Z,7.50
2018-12-08T14:00:51.514Z,7.40
2018-12-08T14:03:20.349Z,7.50
2018-12-08T14:05:49.161Z,7.50
2018-12-08T14:08:18.023Z,7.50
2018-12-08T14:10:46.782Z,7.50
2018-12-08T14:13:16.017Z,7.40
2018-12-08T14:15:45.135Z,7.50
2018-12-08T14:18:13.968Z,7.40
2018-12-08T14:20:42.842Z,7.40
2018-12-08T14:23:11.649Z,7.40
2018-12-08T14:25:40.549Z,7.40
2018-12-08T14:28:09.664Z,7.50
2018-12-08T14:30:38.665Z,7.50
2018-12-08T14:33:07.542Z,7.50
2018-12-08T14:35:36.469Z,7.50
2018-12-08T14:38:05.362Z,7.60
2018-12-08T14:40:34.169Z,7.50
2018-12-08T14:43:03.010Z,7.60
2018-12-08T14:45:31.937Z,7.60
2018-12-08T14:48:00.882Z,7.60
2018-12-08T14:50:29.677Z,7.60
2018-12-08T14:52:58.611Z,7.60
2018-12-08T14:55:27.466Z,7.60
2018-12-08T14:57:56.270Z,7.60
2018-12-08T15:00:25.501Z,7.70
2018-12-08T15:02:55.497Z,7.60
2018-12-08T15:05:24.411Z,7.70
2018-12-08T15:07:53.344Z,7.60
2018-12-08T15:10:22.693Z,7.60
2018-12-08T15:12:51.703Z,7.50
2018-12-08T15:15:20.489Z,7.40
2018-12-08T15:17:49.454Z,7.40
2018-12-08T15:20:18.352Z,7.30
2018-12-08T15:22:47.233Z,7.30
2018-12-08T15:25:16.079Z,7.30
2018-12-08T15:27:44.898Z,7.40
2018-12-08T15:30:13.789Z,7.40
2018-12-08T15:32:42.665Z,7.40
2018-12-08T15:35:11.529Z,7.40
2018-12-08T15:37:41.319Z,7.40
2018-12-08T15:40:10.856Z,7.40
2018-12-08T15:42:40.078Z,7.40
2018-12-08T15:45:10.617Z,7.40
2018-12-08T15:47:39.703Z,7.30
2018-12-08T15:50:10.344Z,7.40
2018-12-08T15:52:39.317Z,7.40
2018-12-08T15:55:09.402Z,7.40
2018-12-08T15:57:38.282Z,7.40
2018-12-08T16:00:10.118Z,7.50
2018-12-08T16:02:39.310Z,7.50
2018-12-08T16:05:09.814Z,7.50
2018-12-08T16:07:39.129Z,7.50
2018-12-08T16:10:10.907Z,7.60
2018-12-08T16:12:39.718Z,7.60
2018-12-08T16:15:09.894Z,7.60
2018-12-08T16:17:38.858Z,7.70
2018-12-08T16:20:12.129Z,7.70
2018-12-08T16:22:46.986Z,7.70
2018-12-08T16:25:18.001Z,7.70
2018-12-08T16:27:46.995Z,7.70
2018-12-08T16:30:16.892Z,7.80
2018-12-08T16:32:46.618Z,7.80
2018-12-08T16:35:15.636Z,7.80
2018-12-08T16:37:44.913Z,7.80
2018-12-08T16:40:14.120Z,7.80
2018-12-08T16:42:43.042Z,7.80
2018-12-08T16:45:12.098Z,7.80
2018-12-08T16:47:40.918Z,7.80
2018-12-08T16:50:11.371Z,7.90
2018-12-08T16:52:40.198Z,7.90
2018-12-08T16:55:08.998Z,7.80
2018-12-08T16:57:38.501Z,7.80
2018-12-08T17:00:08.242Z,7.80
2018-12-08T17:02:37.407Z,7.80
2018-12-08T17:05:06.382Z,7.80
2018-12-08T17:07:35.367Z,7.80
2018-12-08T17:10:05.194Z,7.80
2018-12-08T17:12:34.174Z,7.80
2018-12-08T17:15:03.057Z,7.80
2018-12-08T17:17:31.895Z,7.80
2018-12-08T17:20:00.677Z,7.80
2018-12-08T17:22:29.656Z,7.70
2018-12-08T17:24:58.545Z,7.70
2018-12-08T17:27:27.439Z,7.70
2018-12-08T17:29:56.352Z,7.70
2018-12-08T17:32:25.220Z,7.70
2018-12-08T17:34:54.081Z,7.80
2018-12-08T17:37:22.926Z,7.80
2018-12-08T17:39:51.860Z,7.80
2018-12-08T17:42:20.971Z,7.80
2018-12-08T17:44:49.882Z,7.80
2018-12-08T17:47:18.666Z,7.80
2018-12-08T17:49:47.629Z,7.80
2018-12-08T17:52:16.493Z,7.80
2018-12-08T17:54:47.455Z,7.90
2018-12-08T17:57:16.390Z,7.90
2018-12-08T18:15:48.283Z,7.90
2018-12-08T18:18:17.140Z,8.00
2018-12-08T18:23:25.897Z,8.10
2018-12-08T18:25:54.697Z,8.10
2018-12-08T18:28:23.607Z,8.20
2018-12-08T18:30:52.414Z,8.10
2018-12-08T18:33:21.333Z,8.10
2018-12-08T18:35:50.209Z,8.20
2018-12-08T18:38:20.134Z,8.20
2018-12-08T18:40:48.967Z,8.20
2018-12-08T18:43:17.948Z,8.20
2018-12-08T18:45:47.112Z,8.20
2018-12-08T18:48:16.047Z,8.20
2018-12-08T18:50:44.865Z,8.20
2018-12-08T18:53:14.060Z,8.20
2018-12-08T18:55:43.026Z,8.20
2018-12-08T18:58:11.815Z,8.20
2018-12-08T19:00:40.816Z,8.20
2018-12-08T19:03:09.606Z,8.20
2018-12-08T19:05:38.427Z,8.20
2018-12-08T19:08:08.417Z,8.30
2018-12-08T19:10:40.720Z,8.30
2018-12-08T19:16:06.714Z,8.30
2018-12-08T19:18:35.488Z,8.30
2018-12-08T19:21:04.463Z,8.30
2018-12-08T19:23:34.037Z,8.30
2018-12-08T19:26:03.097Z,8.20
2018-12-08T19:28:32.029Z,8.20
2018-12-08T19:31:00.947Z,8.20
2018-12-08T19:33:29.750Z,8.10
2018-12-08T19:35:58.573Z,8.10
2018-12-08T19:38:27.684Z,8.10
2018-12-08T19:40:58.611Z,8.10
2018-12-08T19:43:28.004Z,8.00
2018-12-08T19:45:56.902Z,8.10
2018-12-08T19:48:25.750Z,8.10
2018-12-08T19:50:54.581Z,8.10
2018-12-08T19:53:23.449Z,8.10
2018-12-08T19:55:52.626Z,8.10
2018-12-08T19:58:22.692Z,8.20
2018-12-08T20:00:51.664Z,8.10
2018-12-08T20:03:20.754Z,8.20
2018-12-08T20:05:49.542Z,8.10
2018-12-08T20:08:18.510Z,8.20
2018-12-08T20:10:47.391Z,8.20
2018-12-08T20:13:16.318Z,8.20
2018-12-08T20:15:45.189Z,8.20
2018-12-08T20:18:14.082Z,8.20
2018-12-08T20:20:42.916Z,8.20
2018-12-08T20:23:11.815Z,8.20
2018-12-08T20:25:40.646Z,8.30
2018-12-08T20:28:09.498Z,8.30
2018-12-08T20:30:38.303Z,8.30
2018-12-08T20:33:07.505Z,8.20
2018-12-08T20:35:36.314Z,8.30
2018-12-08T20:38:05.186Z,8.20
2018-12-08T20:40:34.065Z,8.20
2018-12-08T20:43:08.161Z,8.10
2018-12-08T20:45:36.995Z,8.10
2018-12-08T20:48:05.828Z,8.00
2018-12-08T20:50:34.685Z,8.10
2018-12-08T20:53:03.543Z,8.10
2018-12-08T20:55:32.350Z,8.00
2018-12-08T20:58:06.570Z,8.00
2018-12-08T21:00:35.457Z,8.00
2018-12-08T21:03:04.330Z,8.00
2018-12-08T21:05:33.264Z,8.00
2018-12-08T21:08:02.139Z,8.00
2018-12-08T21:10:30.978Z,8.10
2018-12-08T21:12:59.796Z,8.10
2018-12-08T21:15:28.721Z,8.10
2018-12-08T21:17:57.526Z,8.10
2018-12-08T21:20:26.353Z,8.10
2018-12-08T21:25:55.102Z,8.10
2018-12-08T21:28:23.901Z,8.10
2018-12-08T21:30:52.870Z,8.10
2018-12-08T21:33:21.897Z,8.10
2018-12-08T21:35:51.084Z,8.20
2018-12-08T21:38:19.960Z,8.20
2018-12-08T21:40:49.106Z,8.20
2018-12-08T21:43:18.177Z,8.20
2018-12-08T21:45:47.020Z,8.20
2018-12-08T21:48:15.856Z,8.20
2018-12-08T21:50:44.877Z,8.20
2018-12-08T21:53:13.773Z,8.20
2018-12-08T21:55:42.766Z,8.10
2018-12-08T21:58:11.762Z,8.10
2018-12-08T22:00:40.817Z,8.20
2018-12-08T22:03:10.159Z,8.20
2018-12-08T22:05:40.131Z,8.20
2018-12-08T22:08:09.229Z,8.20
2018-12-08T22:10:38.067Z,8.20
2018-12-08T22:13:06.986Z,8.20
2018-12-08T22:15:35.938Z,8.20
2018-12-08T22:18:04.790Z,8.20
2018-12-08T22:20:33.662Z,8.20
2018-12-08T22:23:02.624Z,8.20
2018-12-08T22:25:31.614Z,8.20
2018-12-08T22:28:00.628Z,8.20
2018-12-08T22:30:30.665Z,8.30
2018-12-08T22:32:59.476Z,8.20
2018-12-08T22:35:29.496Z,8.20
2018-12-08T22:38:03.192Z,8.30
2018-12-08T22:40:32.141Z,8.40
2018-12-08T22:43:01.057Z,8.50
2018-12-08T22:45:30.322Z,8.60
2018-12-08T22:48:01.486Z,8.60
2018-12-08T22:50:30.405Z,8.70
2018-12-08T22:52:59.282Z,8.80
2018-12-08T22:55:28.100Z,8.90
2018-12-08T22:57:56.899Z,8.90
2018-12-08T23:00:39.063Z,9.10
2018-12-08T23:03:07.933Z,9.20
2018-12-08T23:05:37.833Z,9.30
2018-12-08T23:08:06.816Z,9.40
2018-12-08T23:10:35.629Z,9.40
2018-12-08T23:13:04.737Z,9.50
2018-12-08T23:15:34.117Z,9.50
2018-12-08T23:18:03.149Z,9.50
2018-12-08T23:20:32.120Z,9.60
2018-12-08T23:23:01.027Z,9.60
2018-12-08T23:25:29.965Z,9.60
2018-12-08T23:27:58.750Z,9.70
2018-12-08T23:30:27.721Z,9.70
2018-12-08T23:32:56.709Z,9.70
2018-12-08T23:35:26.367Z,9.80
2018-12-08T23:37:55.258Z,9.80
2018-12-08T23:40:24.362Z,9.80
2018-12-08T23:42:53.254Z,9.80
2018-12-08T23:45:22.261Z,9.90
2018-12-08T23:47:52.197Z,9.90
2018-12-08T23:50:21.069Z,9.90
2018-12-08T23:52:49.954Z,9.90
2018-12-08T23:55:18.838Z,9.80
2018-12-08T23:57:47.718Z,9.80
